createdAt,value
2023-10-20T00:00:45.337Z,41.97
2023-10-20T00:03:12.291Z,36.10
2023-10-20T00:05:39.279Z,37.53
2023-10-20T00:08:06.526Z,37.27
2023-10-20T00:10:40.919Z,36.87
2023-10-20T00:13:08.007Z,36.30
2023-10-20T00:15:35.977Z,37.00
2023-10-20T00:18:04.212Z,35.03
2023-10-20T00:20:31.121Z,39.00
2023-10-20T00:22:58.204Z,35.07
2023-10-20T00:25:25.059Z,35.40
2023-10-20T00:27:51.919Z,38.40
2023-10-20T00:30:18.739Z,34.67
2023-10-20T00:32:46.903Z,36.33
2023-10-20T00:35:15.351Z,33.70
2023-10-20T00:37:43.346Z,36.80
2023-10-20T00:40:11.665Z,35.03
2023-10-20T00:42:38.972Z,33.07
2023-10-20T00:45:07.018Z,33.07
2023-10-20T00:47:36.416Z,35.17
2023-10-20T00:50:06.055Z,32.73
2023-10-20T00:52:37.328Z,31.33
2023-10-20T00:55:05.042Z,36.17
2023-10-20T00:57:32.325Z,32.07
2023-10-20T00:59:59.136Z,30.27
2023-10-20T01:02:26.143Z,29.57
2023-10-20T01:04:53.172Z,31.30
2023-10-20T01:07:20.816Z,34.77
2023-10-20T01:09:47.598Z,32.90
2023-10-20T01:12:14.407Z,32.60
2023-10-20T01:14:41.754Z,28.67
2023-10-20T01:17:11.427Z,33.80
2023-10-20T01:19:38.733Z,33.70
2023-10-20T01:22:05.916Z,32.83
2023-10-20T01:24:32.993Z,31.20
2023-10-20T01:26:59.880Z,32.57
2023-10-20T01:29:26.790Z,30.73
2023-10-20T01:31:53.618Z,31.80
2023-10-20T01:34:20.571Z,33.70
2023-10-20T01:36:47.603Z,31.50
2023-10-20T01:39:16.925Z,31.53
2023-10-20T01:41:43.979Z,34.43
2023-10-20T01:44:10.826Z,34.27
2023-10-20T01:46:37.805Z,29.00
2023-10-20T01:49:04.741Z,32.17
2023-10-20T01:51:31.551Z,30.50
2023-10-20T01:53:58.577Z,36.53
2023-10-20T01:56:25.480Z,32.50
2023-10-20T01:58:52.308Z,33.30
2023-10-20T02:01:20.264Z,32.17
2023-10-20T02:03:48.671Z,32.10
2023-10-20T02:06:15.532Z,32.33
2023-10-20T02:08:42.286Z,30.83
2023-10-20T02:11:10.007Z,30.40
2023-10-20T02:13:38.369Z,34.53
2023-10-20T02:16:07.610Z,34.73
2023-10-20T02:18:34.516Z,31.83
2023-10-20T02:21:05.259Z,31.00
2023-10-20T02:23:33.097Z,36.17
2023-10-20T02:26:01.449Z,32.50
2023-10-20T02:28:28.624Z,35.87
2023-10-20T02:31:00.334Z,34.20
2023-10-20T02:33:27.263Z,33.27
2023-10-20T02:35:55.983Z,34.87
2023-10-20T02:38:22.802Z,35.80
2023-10-20T02:40:51.446Z,35.00
2023-10-20T02:43:18.352Z,35.03
2023-10-20T02:45:53.865Z,34.40
2023-10-20T02:48:21.679Z,34.13
2023-10-20T02:50:48.960Z,39.27
2023-10-20T02:53:16.493Z,37.27
2023-10-20T02:55:44.486Z,37.30
2023-10-20T02:58:12.027Z,35.80
2023-10-20T03:00:46.632Z,38.90
2023-10-20T03:03:15.333Z,36.40
2023-10-20T03:05:46.996Z,38.37
2023-10-20T03:08:14.372Z,36.67
2023-10-20T03:10:41.178Z,37.63
2023-10-20T03:13:08.039Z,43.00
2023-10-20T03:15:35.010Z,39.43
2023-10-20T03:18:02.011Z,39.67
2023-10-20T03:20:32.086Z,39.17
2023-10-20T03:22:59.842Z,37.80
2023-10-20T03:25:28.205Z,36.73
2023-10-20T03:27:54.965Z,39.87
2023-10-20T03:30:21.790Z,41.17
2023-10-20T03:32:51.889Z,40.03
2023-10-20T03:35:19.245Z,40.10
2023-10-20T03:37:46.226Z,40.70
2023-10-20T03:40:17.940Z,38.43
2023-10-20T03:42:44.873Z,39.63
2023-10-20T03:45:12.245Z,43.23
2023-10-20T03:47:42.239Z,39.23
2023-10-20T03:50:17.091Z,39.73
2023-10-20T03:52:48.234Z,40.33
2023-10-20T03:55:15.446Z,39.07
2023-10-20T03:57:46.029Z,38.33
2023-10-20T04:00:35.320Z,41.50
2023-10-20T04:03:02.178Z,45.43
2023-10-20T04:05:29.243Z,37.00
2023-10-20T04:07:56.061Z,40.37
2023-10-20T04:10:22.950Z,40.00
2023-10-20T04:12:50.043Z,42.87
2023-10-20T04:15:17.393Z,43.17
2023-10-20T04:17:53.420Z,42.10
2023-10-20T04:20:21.535Z,41.70
2023-10-20T04:22:52.311Z,41.40
2023-10-20T04:25:23.430Z,39.93
2023-10-20T04:27:52.521Z,40.77
2023-10-20T04:30:38.746Z,43.77
2023-10-20T04:33:25.421Z,42.10
2023-10-20T04:36:11.484Z,42.10
2023-10-20T04:38:56.838Z,45.20
2023-10-20T04:41:43.050Z,40.60
2023-10-20T04:44:16.304Z,44.60
2023-10-20T04:47:07.173Z,39.23
2023-10-20T04:49:59.783Z,41.47
2023-10-20T04:52:44.777Z,42.17
2023-10-20T04:55:11.576Z,42.03
2023-10-20T04:57:41.501Z,46.13
2023-10-20T05:00:11.777Z,36.90
2023-10-20T05:02:58.893Z,40.73
2023-10-20T05:05:26.545Z,43.57
2023-10-20T05:07:54.369Z,44.23
2023-10-20T05:10:22.091Z,42.20
2023-10-20T05:12:49.394Z,40.07
2023-10-20T05:15:16.494Z,44.00
2023-10-20T05:17:43.343Z,42.30
2023-10-20T05:20:14.647Z,45.03
2023-10-20T05:22:42.776Z,40.70
2023-10-20T05:25:10.941Z,43.33
2023-10-20T05:27:37.728Z,45.47
2023-10-20T05:30:05.560Z,41.43
2023-10-20T05:32:33.149Z,41.47
2023-10-20T05:35:00.466Z,40.87
2023-10-20T05:37:27.949Z,44.37
2023-10-20T05:39:54.783Z,43.13
2023-10-20T05:42:21.559Z,41.73
2023-10-20T05:45:04.864Z,41.83
2023-10-20T05:47:32.208Z,42.47
2023-10-20T05:50:00.710Z,42.00
2023-10-20T05:52:27.611Z,42.47
2023-10-20T05:54:57.246Z,41.13
2023-10-20T05:57:24.320Z,43.83
2023-10-20T05:59:51.864Z,40.93
2023-10-20T06:02:19.465Z,41.43
2023-10-20T06:04:46.243Z,41.40
2023-10-20T06:07:13.016Z,42.70
2023-10-20T06:09:40.923Z,40.83
2023-10-20T06:12:08.926Z,42.87
2023-10-20T06:14:37.667Z,46.00
2023-10-20T06:17:04.741Z,40.33
2023-10-20T06:19:32.911Z,42.87
2023-10-20T06:22:01.701Z,42.87
2023-10-20T06:24:29.374Z,41.43
2023-10-20T06:27:04.131Z,39.27
2023-10-20T06:29:34.740Z,42.03
2023-10-20T06:32:07.549Z,37.30
2023-10-20T06:34:41.996Z,37.73
2023-10-20T06:37:15.721Z,37.83
2023-10-20T06:39:43.005Z,34.37
2023-10-20T06:42:10.907Z,36.10
2023-10-20T06:44:37.745Z,38.67
2023-10-20T06:47:04.869Z,38.17
2023-10-20T06:49:33.766Z,34.87
2023-10-20T06:52:05.375Z,35.33
2023-10-20T06:54:32.501Z,34.00
2023-10-20T06:57:00.778Z,32.23
2023-10-20T06:59:27.713Z,35.53
2023-10-20T07:02:01.540Z,32.30
2023-10-20T07:04:29.016Z,32.23
2023-10-20T07:06:58.326Z,33.87
2023-10-20T07:09:25.691Z,31.30
2023-10-20T07:11:53.666Z,32.93
2023-10-20T07:14:20.563Z,21.17
2023-10-20T07:16:47.506Z,15.10
2023-10-20T07:19:14.574Z,15.77
2023-10-20T07:21:41.701Z,24.20
2023-10-20T07:24:09.262Z,25.90
2023-10-20T07:26:36.298Z,26.53
2023-10-20T07:29:03.730Z,27.60
2023-10-20T07:31:30.669Z,25.83
2023-10-20T07:33:57.631Z,24.47
2023-10-20T07:36:24.404Z,28.60
2023-10-20T07:38:51.409Z,26.43
2023-10-20T07:41:18.677Z,23.77
2023-10-20T07:43:45.585Z,24.40
2023-10-20T07:46:18.641Z,27.03
2023-10-20T07:48:46.395Z,22.20
2023-10-20T07:51:13.306Z,22.83
2023-10-20T07:53:40.280Z,23.57
2023-10-20T07:56:07.112Z,22.37
2023-10-20T07:58:34.535Z,25.47
2023-10-20T08:01:02.189Z,23.10
2023-10-20T08:03:29.636Z,22.70
2023-10-20T08:05:57.013Z,23.47
2023-10-20T08:08:24.324Z,24.90
2023-10-20T08:10:53.428Z,22.33
2023-10-20T08:13:20.434Z,22.83
2023-10-20T08:15:47.262Z,23.17
2023-10-20T08:18:14.363Z,24.23
2023-10-20T08:20:41.221Z,22.17
2023-10-20T08:23:08.192Z,21.03
2023-10-20T08:25:38.419Z,20.73
2023-10-20T08:28:06.332Z,21.97
2023-10-20T08:30:33.213Z,20.77
2023-10-20T08:33:00.849Z,20.20
2023-10-20T08:35:27.885Z,20.27
2023-10-20T08:37:54.775Z,21.30
2023-10-20T08:40:21.608Z,21.33
2023-10-20T08:42:50.012Z,21.40
2023-10-20T08:45:17.279Z,20.60
2023-10-20T08:47:44.634Z,19.37
2023-10-20T08:50:13.289Z,21.37
2023-10-20T08:52:41.054Z,21.50
2023-10-20T08:55:09.088Z,22.33
2023-10-20T08:57:35.890Z,22.10
2023-10-20T09:00:02.860Z,22.03
2023-10-20T09:02:39.923Z,23.63
2023-10-20T09:05:08.365Z,22.13
2023-10-20T09:07:35.613Z,19.37
2023-10-20T09:10:03.956Z,21.87
2023-10-20T09:12:33.000Z,20.63
2023-10-20T09:14:59.871Z,21.37
2023-10-20T09:17:27.266Z,18.70
2023-10-20T09:20:05.906Z,20.83
2023-10-20T09:22:32.649Z,21.23
2023-10-20T09:24:59.745Z,21.27
2023-10-20T09:27:27.084Z,20.07
2023-10-20T09:29:56.260Z,20.17
2023-10-20T09:32:23.213Z,22.17
2023-10-20T09:34:52.009Z,22.23
2023-10-20T09:37:24.645Z,20.13
2023-10-20T09:39:55.821Z,19.17
2023-10-20T09:42:25.943Z,24.13
2023-10-20T09:45:07.683Z,21.37
2023-10-20T09:47:38.134Z,21.00
2023-10-20T09:50:06.903Z,20.77
2023-10-20T09:52:34.597Z,22.27
2023-10-20T09:55:02.889Z,21.77
2023-10-20T09:57:30.179Z,21.77
2023-10-20T09:59:57.003Z,22.23
2023-10-20T10:02:31.286Z,23.60
2023-10-20T10:04:59.219Z,22.80
2023-10-20T10:07:35.428Z,22.73
2023-10-20T10:10:05.057Z,21.60
2023-10-20T10:12:34.442Z,21.60
2023-10-20T10:15:15.562Z,21.67
2023-10-20T10:17:53.264Z,20.90
2023-10-20T10:20:29.421Z,21.77
2023-10-20T10:23:12.396Z,21.53
2023-10-20T10:25:41.507Z,20.60
2023-10-20T10:28:14.933Z,22.77
2023-10-20T10:30:43.141Z,20.70
2023-10-20T10:33:12.477Z,20.43
2023-10-20T10:35:40.817Z,22.50
2023-10-20T10:38:22.457Z,22.17
2023-10-20T10:40:56.505Z,20.17
2023-10-20T10:43:23.505Z,25.65
2023-10-20T10:45:54.759Z,23.07
2023-10-20T10:48:25.971Z,18.30
2023-10-20T10:50:52.910Z,17.45
2023-10-20T10:53:19.741Z,19.65
2023-10-20T10:55:46.753Z,21.00
2023-10-20T10:58:15.237Z,20.10
2023-10-20T11:00:46.868Z,20.80
2023-10-20T11:03:17.312Z,20.20
2023-10-20T11:05:44.634Z,18.48
2023-10-20T11:08:13.991Z,23.00
2023-10-20T11:10:47.487Z,18.25
2023-10-20T11:13:17.662Z,18.98
2023-10-20T11:15:48.024Z,20.65
2023-10-20T11:18:14.969Z,18.63
2023-10-20T11:20:43.459Z,19.08
2023-10-20T11:23:12.609Z,20.42
2023-10-20T11:25:42.057Z,22.10
2023-10-20T11:28:09.302Z,19.63
2023-10-20T11:30:40.455Z,18.77
2023-10-20T11:33:07.556Z,20.25
2023-10-20T11:35:34.753Z,19.98
2023-10-20T11:38:02.372Z,21.15
2023-10-20T11:40:30.121Z,21.42
2023-10-20T11:42:57.593Z,19.42
2023-10-20T11:45:24.939Z,20.17
2023-10-20T11:47:52.977Z,20.27
2023-10-20T11:50:20.872Z,18.58
2023-10-20T11:52:48.713Z,21.08
2023-10-20T11:55:15.570Z,19.20
2023-10-20T11:57:42.887Z,19.85
2023-10-20T12:00:11.352Z,21.95
2023-10-20T12:02:39.842Z,19.17
2023-10-20T12:05:07.752Z,23.88
2023-10-20T12:07:34.896Z,18.00
2023-10-20T12:10:08.411Z,20.25
2023-10-20T12:12:40.286Z,20.42
2023-10-20T12:15:09.179Z,17.80
2023-10-20T12:17:36.574Z,18.45
2023-10-20T12:20:04.176Z,18.85
2023-10-20T12:22:30.922Z,18.42
2023-10-20T12:24:57.718Z,20.48
2023-10-20T12:27:24.673Z,21.73
2023-10-20T12:29:51.425Z,18.25
2023-10-20T12:32:18.676Z,18.70
2023-10-20T12:34:45.921Z,20.50
2023-10-20T12:37:12.745Z,18.63
2023-10-20T12:39:41.666Z,19.58
2023-10-20T12:42:09.006Z,20.35
2023-10-20T12:44:36.528Z,20.05
2023-10-20T12:47:04.125Z,20.77
2023-10-20T12:49:33.111Z,24.48
2023-10-20T12:52:03.568Z,21.00
2023-10-20T12:54:30.650Z,20.60
2023-10-20T12:57:00.192Z,19.50
2023-10-20T12:59:27.328Z,21.23
2023-10-20T13:01:54.544Z,20.13
2023-10-20T13:04:21.661Z,17.27
2023-10-20T13:06:59.941Z,17.13
2023-10-20T13:09:27.970Z,16.83
2023-10-20T13:11:54.899Z,16.92
2023-10-20T13:14:21.811Z,18.95
2023-10-20T13:16:48.752Z,20.05
2023-10-20T13:19:16.787Z,16.58
2023-10-20T13:21:44.316Z,16.35
2023-10-20T13:24:11.388Z,17.52
2023-10-20T13:26:38.900Z,19.30
2023-10-20T13:29:05.991Z,17.52
2023-10-20T13:31:35.351Z,18.92
2023-10-20T13:34:03.899Z,18.23
2023-10-20T13:36:30.872Z,17.70
2023-10-20T13:38:57.730Z,20.75
2023-10-20T13:41:27.394Z,19.65
2023-10-20T13:43:54.169Z,17.30
2023-10-20T13:46:20.996Z,17.60
2023-10-20T13:48:48.674Z,16.80
2023-10-20T13:51:16.129Z,16.52
2023-10-20T13:53:43.356Z,17.00
2023-10-20T13:56:10.338Z,17.40
2023-10-20T13:58:37.153Z,17.38
2023-10-20T14:01:04.255Z,17.63
2023-10-20T14:03:31.345Z,17.45
2023-10-20T14:05:58.677Z,20.55
2023-10-20T14:08:26.062Z,22.88
2023-10-20T14:10:54.838Z,19.52
2023-10-20T14:13:22.088Z,17.35
2023-10-20T14:15:50.990Z,17.95
2023-10-20T14:20:45.051Z,20.38
2023-10-20T14:23:11.946Z,17.00
2023-10-20T14:25:38.704Z,17.25
2023-10-20T14:28:07.170Z,16.02
2023-10-20T14:30:34.344Z,18.35
2023-10-20T14:33:01.427Z,18.50
2023-10-20T14:35:28.493Z,17.00
2023-10-20T14:37:57.480Z,15.95
2023-10-20T14:40:24.412Z,16.77
2023-10-20T14:42:51.307Z,16.95
2023-10-20T14:45:18.482Z,18.23
2023-10-20T14:47:45.427Z,18.02
2023-10-20T14:50:12.399Z,15.85
2023-10-20T14:52:41.411Z,16.38
2023-10-20T14:55:10.705Z,16.48
2023-10-20T14:57:37.813Z,18.73
2023-10-20T15:00:11.530Z,19.00
2023-10-20T15:02:40.184Z,17.67
2023-10-20T15:05:08.018Z,18.50
2023-10-20T15:07:38.043Z,18.30
2023-10-20T15:10:05.526Z,17.92
2023-10-20T15:12:32.919Z,17.27
2023-10-20T15:15:01.100Z,17.02
2023-10-20T15:17:28.210Z,17.75
2023-10-20T15:19:55.418Z,21.70
2023-10-20T15:22:22.412Z,15.57
2023-10-20T15:24:50.106Z,15.23
2023-10-20T15:27:19.646Z,17.05
2023-10-20T15:29:47.822Z,16.40
2023-10-20T15:32:16.809Z,19.65
2023-10-20T15:34:43.737Z,17.30
2023-10-20T15:37:10.625Z,15.88
2023-10-20T15:39:49.275Z,16.10
2023-10-20T15:42:25.050Z,16.67
2023-10-20T15:44:52.088Z,17.35
2023-10-20T15:47:19.047Z,18.15
2023-10-20T15:49:45.948Z,16.88
2023-10-20T15:52:13.266Z,17.73
2023-10-20T15:54:40.198Z,18.45
2023-10-20T15:57:07.482Z,19.75
2023-10-20T15:59:34.577Z,20.13
2023-10-20T16:02:01.730Z,21.05
2023-10-20T16:04:28.706Z,18.35
2023-10-20T16:06:55.604Z,17.52
2023-10-20T16:09:22.449Z,19.92
2023-10-20T16:11:49.441Z,19.58
2023-10-20T16:14:16.598Z,20.80
2023-10-20T16:16:43.478Z,22.58
2023-10-20T16:19:11.837Z,18.95
2023-10-20T16:21:39.002Z,17.90
2023-10-20T16:24:06.711Z,17.02
2023-10-20T16:26:33.803Z,17.10
2023-10-20T16:29:00.647Z,20.17
2023-10-20T16:31:27.576Z,19.08
2023-10-20T16:33:54.801Z,18.70
2023-10-20T16:36:21.970Z,18.63
2023-10-20T16:38:48.834Z,18.20
2023-10-20T16:41:15.723Z,14.25
2023-10-20T16:43:42.559Z,13.60
2023-10-20T16:46:09.404Z,11.27
2023-10-20T16:48:36.358Z,9.45
2023-10-20T16:51:03.415Z,5.95
2023-10-20T16:53:30.432Z,4.90
2023-10-20T16:56:00.916Z,4.70
2023-10-20T16:58:28.642Z,3.85
2023-10-20T17:01:05.792Z,3.67
2023-10-20T17:03:34.805Z,4.15
2023-10-20T17:06:06.139Z,5.05
2023-10-20T17:08:33.544Z,3.15
2023-10-20T17:11:06.513Z,2.85
2023-10-20T17:13:33.704Z,2.78
2023-10-20T17:16:08.256Z,2.50
2023-10-20T17:18:35.505Z,2.28
2023-10-20T17:21:09.972Z,1.50
2023-10-20T17:23:37.764Z,1.98
2023-10-20T17:26:06.576Z,2.00
2023-10-20T17:28:34.192Z,2.22
2023-10-20T17:31:03.945Z,3.53
2023-10-20T17:33:31.432Z,4.20
2023-10-20T17:36:14.136Z,4.50
2023-10-20T17:38:41.314Z,2.75
2023-10-20T17:41:09.136Z,3.17
2023-10-20T17:43:37.578Z,2.00
2023-10-20T17:46:06.033Z,2.33
2023-10-20T17:48:33.598Z,1.42
2023-10-20T17:51:01.649Z,4.43
2023-10-20T17:53:29.086Z,3.70
2023-10-20T17:55:55.880Z,2.57
2023-10-20T17:58:23.044Z,4.67
2023-10-20T18:00:51.974Z,3.78
2023-10-20T18:03:19.768Z,2.63
2023-10-20T18:05:47.426Z,2.03
2023-10-20T18:08:15.590Z,2.63
2023-10-20T18:10:42.849Z,3.43
2023-10-20T18:13:09.773Z,3.27
2023-10-20T18:15:37.641Z,3.80
2023-10-20T18:18:05.307Z,3.33
2023-10-20T18:20:32.245Z,2.40
2023-10-20T18:23:00.190Z,3.93
2023-10-20T18:25:28.912Z,2.15
2023-10-20T18:27:55.902Z,2.75
2023-10-20T18:30:22.963Z,1.87
2023-10-20T18:32:51.283Z,1.70
2023-10-20T18:35:18.157Z,4.80
2023-10-20T18:37:44.992Z,4.10
2023-10-20T18:40:12.037Z,3.47
2023-10-20T18:42:39.925Z,2.75
2023-10-20T18:45:07.166Z,1.50
2023-10-20T18:47:34.042Z,2.53
2023-10-20T18:50:01.273Z,1.60
2023-10-20T18:52:28.338Z,2.20
2023-10-20T18:54:55.175Z,1.65
2023-10-20T18:57:21.960Z,2.47
2023-10-20T18:59:48.791Z,2.20
2023-10-20T19:02:15.651Z,5.63
2023-10-20T19:04:42.438Z,5.93
2023-10-20T19:07:11.432Z,5.50
2023-10-20T19:09:42.006Z,4.17
2023-10-20T19:12:10.192Z,4.60
2023-10-20T19:14:36.977Z,2.80
2023-10-20T19:17:03.930Z,3.83
2023-10-20T19:19:30.686Z,5.75
2023-10-20T19:21:57.462Z,7.03
2023-10-20T19:24:25.299Z,5.70
2023-10-20T19:26:52.560Z,4.20
2023-10-20T19:29:22.129Z,4.83
2023-10-20T19:31:49.053Z,4.40
2023-10-20T19:34:15.976Z,3.57
2023-10-20T19:36:42.793Z,3.65
2023-10-20T19:39:10.768Z,3.00
2023-10-20T19:41:38.500Z,3.80
2023-10-20T19:44:05.373Z,2.83
2023-10-20T19:46:32.425Z,6.25
2023-10-20T19:49:00.184Z,5.60
2023-10-20T19:51:27.288Z,4.87
2023-10-20T19:53:54.148Z,3.35
2023-10-20T19:56:21.006Z,3.87
2023-10-20T19:58:47.797Z,4.33
2023-10-20T20:01:14.912Z,4.90
2023-10-20T20:03:43.086Z,3.93
2023-10-20T20:06:13.716Z,3.60
2023-10-20T20:08:41.541Z,3.73
2023-10-20T20:11:09.131Z,6.23
2023-10-20T20:13:36.220Z,7.13
2023-10-20T20:16:06.414Z,2.70
2023-10-20T20:18:33.967Z,4.57
2023-10-20T20:21:01.016Z,3.50
2023-10-20T20:23:27.863Z,3.23
2023-10-20T20:25:54.601Z,3.67
2023-10-20T20:28:21.368Z,3.37
2023-10-20T20:30:48.181Z,4.00
2023-10-20T20:33:15.302Z,3.70
2023-10-20T20:35:42.322Z,3.70
2023-10-20T20:38:09.330Z,4.77
2023-10-20T20:40:38.192Z,5.83
2023-10-20T20:43:05.778Z,5.17
2023-10-20T20:45:35.828Z,3.73
2023-10-20T20:48:05.837Z,2.90
2023-10-20T20:50:33.901Z,3.67
2023-10-20T20:53:04.228Z,5.10
2023-10-20T20:55:35.588Z,3.03
2023-10-20T20:58:02.504Z,2.60
2023-10-20T21:00:29.386Z,2.93
2023-10-20T21:02:56.599Z,2.37
2023-10-20T21:05:23.669Z,2.07
2023-10-20T21:07:50.554Z,3.27
2023-10-20T21:10:18.232Z,3.47
2023-10-20T21:12:45.039Z,2.63
2023-10-20T21:15:14.135Z,5.20
2023-10-20T21:17:41.131Z,3.97
2023-10-20T21:20:08.446Z,6.37
2023-10-20T21:22:35.229Z,7.20
2023-10-20T21:25:02.410Z,5.63
2023-10-20T21:27:29.518Z,11.23
2023-10-20T21:29:56.334Z,8.50
2023-10-20T21:32:23.245Z,7.20
2023-10-20T21:34:50.417Z,7.17
2023-10-20T21:37:18.931Z,7.10
2023-10-20T21:39:46.089Z,7.80
2023-10-20T21:42:12.895Z,10.70
2023-10-20T21:44:39.718Z,6.23
2023-10-20T21:47:07.384Z,6.33
2023-10-20T21:49:34.572Z,8.37
2023-10-20T21:52:02.129Z,6.00
2023-10-20T21:54:28.922Z,7.07
2023-10-20T21:56:55.780Z,6.93
2023-10-20T21:59:23.201Z,6.03
2023-10-20T22:02:08.389Z,7.60
2023-10-20T22:04:36.308Z,8.43
2023-10-20T22:07:03.281Z,6.73
2023-10-20T22:09:38.397Z,11.17
2023-10-20T22:12:13.031Z,8.37
2023-10-20T22:14:39.880Z,7.73
2023-10-20T22:17:06.772Z,9.47
2023-10-20T22:19:33.789Z,8.07
2023-10-20T22:22:00.722Z,8.07
2023-10-20T22:24:27.510Z,9.40
2023-10-20T22:26:54.276Z,9.20
2023-10-20T22:29:21.495Z,10.50
2023-10-20T22:31:49.628Z,10.80
2023-10-20T22:34:16.418Z,10.00
2023-10-20T22:36:43.232Z,11.43
2023-10-20T22:39:10.091Z,12.37
2023-10-20T22:41:37.024Z,11.23
2023-10-20T22:44:04.043Z,11.40
2023-10-20T22:46:30.867Z,9.40
2023-10-20T22:48:57.684Z,12.00
2023-10-20T22:51:24.507Z,15.10
2023-10-20T22:53:51.309Z,12.00
2023-10-20T22:56:18.156Z,12.90
2023-10-20T22:58:45.071Z,14.70
2023-10-20T23:01:11.914Z,17.00
2023-10-20T23:03:38.891Z,10.00
2023-10-20T23:06:05.881Z,10.53
2023-10-20T23:08:33.218Z,9.53
2023-10-20T23:11:00.182Z,11.00
2023-10-20T23:13:26.951Z,12.43
2023-10-20T23:15:53.768Z,14.43
2023-10-20T23:18:20.652Z,14.17
2023-10-20T23:20:47.633Z,11.97
2023-10-20T23:23:14.733Z,12.00
2023-10-20T23:25:41.468Z,9.80
2023-10-20T23:28:08.308Z,10.23
2023-10-20T23:30:35.492Z,13.00
2023-10-20T23:33:02.422Z,12.53
2023-10-20T23:35:29.293Z,13.87
2023-10-20T23:37:56.079Z,12.93
2023-10-20T23:40:23.057Z,13.90
2023-10-20T23:42:49.915Z,15.03
2023-10-20T23:45:16.798Z,14.70
2023-10-20T23:47:43.741Z,15.63
2023-10-20T23:50:10.689Z,14.73
2023-10-20T23:52:37.512Z,15.57
2023-10-20T23:55:07.443Z,14.43
2023-10-20T23:57:34.293Z,11.13
